Decoded Metar for UKON (MYKOLAIV in UKRAINE) (IATA:NLV) | Meteo·Mobile Aviation Weather
aviador You're here:

UKON Decoded Metar

MYKOLAIV in UKRAINE
Report Time2018-12-16 10:00:00
UTC Time2018-12-16 10:21:41
Flight Rules mvfr MVFR
Wind090° at 19 kt
W.Decomp.*RWY 05: 15.4 kt HW 11.2 kt RCW
W.Rank090° ranks 12
Current wind is above 090° avg. (9.4)
Visibility9999 m
Phenomena:N/A
Clouds:Broken 018 Hf
Expected CloudBase > 1,200 ft AGL from Temp-Dew spread
Ceiling1,800 ft
Temp00°C (ISA -15)
Dew Point-3°C (80% RH)
AAT-9.2°C
QNH1027 hPa
Density Alt-2,011 ft
Elevation184 ft
Report Wrong Elevation
Raw Report
UKON 161000Z 09010MPS 9999 BKN018 M00/M03 Q1027 NOSIG=

Extra information for UKON:More info

Metar Taf Metar & Taf Last 4 Metars F.Rules Stats Wind Profile Meteogram Temp Stats Airport Information Weather charts Add Link Nearby VenuesMetar ALERT Operation Metar Decoded Social comments